createdAt,value
2018-07-09T00:03:39.720Z,99.90
2018-07-09T00:06:11.069Z,99.90
2018-07-09T00:08:43.133Z,99.90
2018-07-09T00:11:14.746Z,99.90
2018-07-09T00:13:47.397Z,99.90
2018-07-09T00:18:49.996Z,99.90
2018-07-09T00:21:21.743Z,99.90
2018-07-09T00:23:52.970Z,99.90
2018-07-09T00:26:26.497Z,99.90
2018-07-09T00:28:58.334Z,99.90
2018-07-09T00:31:31.600Z,99.90
2018-07-09T00:36:37.048Z,99.90
2018-07-09T00:39:10.987Z,99.90
2018-07-09T00:41:45.322Z,99.90
2018-07-09T00:44:17.289Z,99.90
2018-07-09T00:46:48.817Z,99.90
2018-07-09T00:49:22.114Z,99.90
2018-07-09T00:54:27.208Z,99.90
2018-07-09T00:56:59.864Z,99.90
2018-07-09T00:59:32.319Z,99.90
2018-07-09T01:02:04.059Z,99.90
2018-07-09T01:04:36.534Z,99.90
2018-07-09T01:07:08.384Z,99.90
2018-07-09T01:09:41.599Z,99.90
2018-07-09T01:12:14.446Z,99.90
2018-07-09T01:14:46.794Z,99.90
2018-07-09T01:17:19.189Z,99.90
2018-07-09T01:19:51.421Z,99.90
2018-07-09T01:24:54.884Z,99.90
2018-07-09T01:27:26.833Z,99.90
2018-07-09T01:30:16.206Z,99.90
2018-07-09T01:32:48.929Z,99.90
2018-07-09T01:35:23.252Z,99.90
2018-07-09T01:37:57.631Z,99.90
2018-07-09T01:40:31.499Z,99.90
2018-07-09T01:43:04.865Z,99.90
2018-07-09T01:45:37.987Z,99.90
2018-07-09T01:48:10.684Z,99.90
2018-07-09T01:53:14.031Z,99.90
2018-07-09T01:55:46.003Z,99.90
2018-07-09T01:58:18.453Z,99.90
2018-07-09T02:00:50.243Z,99.90
2018-07-09T02:03:23.046Z,99.90
2018-07-09T02:05:55.442Z,99.90
2018-07-09T02:08:27.200Z,99.90
2018-07-09T02:10:58.728Z,99.90
2018-07-09T02:13:30.815Z,99.90
2018-07-09T02:18:33.480Z,99.90
2018-07-09T02:21:05.557Z,99.90
2018-07-09T02:23:37.792Z,99.90
2018-07-09T02:26:09.343Z,99.90
2018-07-09T02:28:40.993Z,99.90
2018-07-09T02:41:23.697Z,99.90
2018-07-09T02:43:54.412Z,99.90
2018-07-09T02:48:55.988Z,99.90
2018-07-09T02:53:56.213Z,99.90
2018-07-09T02:56:26.602Z,99.90
2018-07-09T02:58:58.670Z,99.90
2018-07-09T03:01:30.985Z,99.90
2018-07-09T03:04:02.579Z,99.90
2018-07-09T03:06:33.891Z,99.90
2018-07-09T03:09:05.897Z,99.90
2018-07-09T03:11:36.227Z,99.90
2018-07-09T03:14:05.148Z,99.90
2018-07-09T03:16:33.706Z,99.90
2018-07-09T03:19:02.826Z,99.90
2018-07-09T03:21:31.304Z,99.90
2018-07-09T03:24:00.478Z,99.90
2018-07-09T03:26:28.853Z,99.90
2018-07-09T03:28:57.220Z,99.90
2018-07-09T03:31:25.446Z,99.90
2018-07-09T03:33:53.464Z,99.90
2018-07-09T03:38:51.445Z,99.90
2018-07-09T03:41:19.588Z,99.90
2018-07-09T03:43:48.957Z,99.90
2018-07-09T03:46:17.408Z,99.90
2018-07-09T03:51:14.069Z,99.90
2018-07-09T03:53:42.052Z,99.90
2018-07-09T03:56:10.664Z,99.90
2018-07-09T03:58:38.730Z,99.90
2018-07-09T04:01:07.108Z,99.90
2018-07-09T04:03:35.177Z,99.90
2018-07-09T04:06:03.469Z,99.90
2018-07-09T04:08:31.641Z,99.90
2018-07-09T04:10:59.697Z,99.90
2018-07-09T04:13:27.793Z,99.90
2018-07-09T04:15:55.933Z,99.90
2018-07-09T04:18:25.030Z,99.90
2018-07-09T04:20:54.950Z,99.90
2018-07-09T04:25:51.222Z,99.90
2018-07-09T04:28:19.265Z,99.90
2018-07-09T04:33:15.728Z,99.90
2018-07-09T04:35:43.935Z,99.90
2018-07-09T04:38:11.997Z,99.90
2018-07-09T04:40:40.188Z,99.90
2018-07-09T04:43:08.498Z,99.90
2018-07-09T04:45:36.600Z,99.90
2018-07-09T04:48:05.034Z,99.90
2018-07-09T04:50:33.168Z,99.90
2018-07-09T04:53:01.281Z,99.90
2018-07-09T04:55:29.300Z,99.90
2018-07-09T04:57:57.513Z,99.90
2018-07-09T05:00:25.698Z,99.90
2018-07-09T05:02:57.553Z,99.90
2018-07-09T05:05:25.629Z,99.90
2018-07-09T05:07:54.394Z,99.90
2018-07-09T05:10:22.481Z,99.90
2018-07-09T05:12:50.740Z,99.90
2018-07-09T05:15:18.939Z,99.90
2018-07-09T05:17:47.000Z,99.90
2018-07-09T05:20:15.155Z,99.90
2018-07-09T05:22:43.446Z,99.90
2018-07-09T05:25:11.534Z,99.90
2018-07-09T05:27:39.613Z,99.90
2018-07-09T05:30:07.856Z,99.90
2018-07-09T05:32:36.057Z,99.90
2018-07-09T05:35:04.304Z,98.80
2018-07-09T05:40:00.640Z,98.90
2018-07-09T05:42:28.744Z,98.00
2018-07-09T05:44:56.858Z,97.30
2018-07-09T05:47:25.089Z,97.40
2018-07-09T05:49:54.095Z,96.70
2018-07-09T05:52:22.289Z,95.40
2018-07-09T05:54:50.328Z,92.90
2018-07-09T05:57:18.531Z,91.30
2018-07-09T05:59:46.607Z,90.60
2018-07-09T06:02:14.677Z,89.40
2018-07-09T06:04:42.749Z,91.80
2018-07-09T06:07:10.896Z,90.80
2018-07-09T06:09:39.206Z,88.40
2018-07-09T06:12:07.356Z,88.40
2018-07-09T06:14:35.553Z,90.30
2018-07-09T06:17:03.799Z,93.20
2018-07-09T06:22:00.180Z,99.90
2018-07-09T06:24:28.220Z,99.90
2018-07-09T06:29:24.212Z,99.90
2018-07-09T06:31:52.359Z,99.90
2018-07-09T06:34:20.553Z,99.90
2018-07-09T06:36:48.608Z,99.90
2018-07-09T06:39:16.696Z,99.90
2018-07-09T06:41:44.953Z,99.90
2018-07-09T06:44:13.064Z,99.90
2018-07-09T06:46:41.102Z,99.90
2018-07-09T06:49:09.293Z,99.90
2018-07-09T06:51:37.373Z,99.90
2018-07-09T06:54:06.080Z,99.90
2018-07-09T06:56:34.116Z,99.90
2018-07-09T06:59:02.476Z,99.90
2018-07-09T07:03:58.416Z,99.90
2018-07-09T07:08:54.676Z,99.90
2018-07-09T07:11:22.663Z,99.90
2018-07-09T07:13:50.806Z,99.90
2018-07-09T07:18:46.950Z,99.90
2018-07-09T07:23:43.008Z,99.90
2018-07-09T07:26:11.096Z,99.90
2018-07-09T07:28:39.159Z,99.90
2018-07-09T07:31:07.465Z,99.90
2018-07-09T07:33:35.526Z,99.90
2018-07-09T07:36:03.922Z,99.90
2018-07-09T07:38:31.980Z,99.90
2018-07-09T07:41:00.151Z,99.90
2018-07-09T07:43:28.348Z,99.90
2018-07-09T07:45:56.415Z,99.90
2018-07-09T07:48:24.565Z,99.90
2018-07-09T07:50:52.648Z,99.90
2018-07-09T07:53:20.850Z,99.90
2018-07-09T07:55:48.919Z,99.90
2018-07-09T07:58:17.074Z,99.90
2018-07-09T08:00:45.245Z,99.90
2018-07-09T08:03:13.337Z,99.90
2018-07-09T08:05:41.617Z,99.60
2018-07-09T08:08:09.901Z,99.20
2018-07-09T08:10:38.048Z,98.20
2018-07-09T08:13:28.506Z,98.40
2018-07-09T08:15:34.829Z,99.70
2018-07-09T08:18:02.999Z,98.20
2018-07-09T08:20:31.259Z,98.10
2018-07-09T08:22:59.369Z,97.80
2018-07-09T08:25:27.645Z,97.30
2018-07-09T08:27:55.731Z,96.90
2018-07-09T08:30:23.848Z,96.80
2018-07-09T08:37:38.509Z,97.00
2018-07-09T08:40:06.762Z,97.10
2018-07-09T08:42:34.911Z,97.10
2018-07-09T08:45:03.105Z,98.10
2018-07-09T08:47:31.237Z,98.30
2018-07-09T08:49:59.367Z,97.50
2018-07-09T08:52:27.468Z,95.70
2018-07-09T08:54:55.607Z,97.00
2018-07-09T08:57:23.682Z,97.30
2018-07-09T08:59:51.823Z,97.70
2018-07-09T09:02:19.917Z,96.30
2018-07-09T09:04:48.074Z,96.60
2018-07-09T09:07:16.302Z,95.90
2018-07-09T09:09:44.317Z,95.60
2018-07-09T09:12:12.422Z,95.80
2018-07-09T09:14:40.781Z,97.00
2018-07-09T09:17:09.085Z,95.30
2018-07-09T09:19:37.429Z,94.30
2018-07-09T09:22:05.734Z,94.10
2018-07-09T09:24:33.821Z,94.40
2018-07-09T09:27:01.862Z,94.30
2018-07-09T09:29:29.962Z,95.70
2018-07-09T09:31:58.244Z,93.60
2018-07-09T09:34:26.520Z,91.90
2018-07-09T09:36:54.664Z,91.80
2018-07-09T09:39:22.861Z,91.60
2018-07-09T09:41:51.197Z,90.50
2018-07-09T09:46:47.275Z,93.10
2018-07-09T09:49:15.487Z,91.70
2018-07-09T09:51:43.539Z,90.90
2018-07-09T09:54:11.691Z,90.80
2018-07-09T09:56:39.968Z,91.50
2018-07-09T09:59:08.037Z,91.40
2018-07-09T10:01:36.245Z,93.40
2018-07-09T10:04:04.601Z,94.20
2018-07-09T10:06:32.802Z,92.30
2018-07-09T10:09:00.971Z,94.30
2018-07-09T10:11:29.202Z,94.20
2018-07-09T10:16:25.277Z,91.40
2018-07-09T10:18:53.363Z,94.20
2018-07-09T10:21:21.640Z,92.90
2018-07-09T10:23:49.838Z,90.70
2018-07-09T10:26:17.927Z,90.80
2018-07-09T10:28:46.045Z,91.30
2018-07-09T10:31:14.367Z,92.80
2018-07-09T10:33:42.423Z,91.50
2018-07-09T10:36:10.612Z,92.30
2018-07-09T10:38:38.867Z,92.40
2018-07-09T10:41:07.231Z,92.00
2018-07-09T10:43:35.555Z,93.20
2018-07-09T10:46:03.783Z,92.60
2018-07-09T10:48:31.899Z,91.10
2018-07-09T10:51:00.128Z,90.10
2018-07-09T10:55:56.310Z,91.60
2018-07-09T10:58:24.468Z,90.30
2018-07-09T11:00:52.597Z,88.70
2018-07-09T11:03:20.789Z,88.30
2018-07-09T11:08:16.683Z,83.00
2018-07-09T11:10:44.952Z,84.90
2018-07-09T11:13:13.097Z,79.60
2018-07-09T11:18:09.402Z,79.80
2018-07-09T11:20:37.526Z,79.80
2018-07-09T11:23:05.933Z,77.70
2018-07-09T11:25:34.187Z,76.90
2018-07-09T11:28:02.389Z,78.20
2018-07-09T11:30:30.556Z,77.90
2018-07-09T11:32:58.743Z,75.40
2018-07-09T11:35:26.800Z,74.20
2018-07-09T11:37:55.088Z,73.50
2018-07-09T11:40:23.380Z,74.10
2018-07-09T11:42:51.619Z,72.80
2018-07-09T11:45:19.690Z,76.00
2018-07-09T11:47:47.773Z,74.60
2018-07-09T11:50:15.973Z,74.00
2018-07-09T11:52:44.115Z,72.10
2018-07-09T11:55:12.321Z,71.40
2018-07-09T11:57:40.562Z,71.60
2018-07-09T12:00:08.970Z,71.60
2018-07-09T12:02:37.318Z,72.20
2018-07-09T12:05:05.621Z,68.50
2018-07-09T12:07:33.813Z,72.00
2018-07-09T12:10:02.109Z,70.20
2018-07-09T12:12:30.362Z,71.00
2018-07-09T12:14:58.542Z,75.10
2018-07-09T12:17:26.694Z,75.20
2018-07-09T12:19:54.992Z,70.10
2018-07-09T12:22:23.045Z,71.10
2018-07-09T12:24:51.130Z,70.90
2018-07-09T12:27:19.431Z,69.20
2018-07-09T12:29:47.592Z,69.80
2018-07-09T12:32:15.665Z,70.50
2018-07-09T12:34:43.941Z,71.40
2018-07-09T12:37:12.233Z,72.10
2018-07-09T12:39:40.272Z,72.50
2018-07-09T12:42:08.573Z,71.20
2018-07-09T12:44:36.736Z,71.40
2018-07-09T12:47:05.256Z,68.70
2018-07-09T12:49:33.304Z,72.20
2018-07-09T12:52:01.587Z,74.70
2018-07-09T12:54:29.881Z,76.00
2018-07-09T12:56:58.003Z,71.90
2018-07-09T12:59:26.099Z,74.20
2018-07-09T13:01:54.370Z,71.60
2018-07-09T13:04:22.663Z,70.30
2018-07-09T13:06:50.831Z,71.70
2018-07-09T13:09:19.012Z,69.70
2018-07-09T13:11:47.302Z,73.00
2018-07-09T13:14:15.569Z,71.50
2018-07-09T13:16:43.637Z,69.90
2018-07-09T13:19:12.023Z,69.00
2018-07-09T13:21:40.299Z,69.70
2018-07-09T13:24:08.363Z,70.20
2018-07-09T13:26:36.563Z,71.50
2018-07-09T13:29:04.724Z,68.80
2018-07-09T13:31:32.825Z,73.70
2018-07-09T13:34:01.152Z,72.30
2018-07-09T13:38:57.532Z,70.80
2018-07-09T13:41:25.677Z,69.80
2018-07-09T13:43:54.104Z,69.00
2018-07-09T13:46:22.369Z,66.30
2018-07-09T13:48:50.557Z,68.90
2018-07-09T13:51:18.591Z,68.20
2018-07-09T13:53:47.519Z,67.40
2018-07-09T13:56:15.612Z,67.40
2018-07-09T13:58:43.672Z,66.80
2018-07-09T14:01:11.720Z,71.90
2018-07-09T14:03:39.815Z,66.60
2018-07-09T14:06:07.981Z,67.90
2018-07-09T14:08:36.070Z,66.60
2018-07-09T14:11:04.216Z,63.70
2018-07-09T14:13:32.407Z,69.20
2018-07-09T14:16:00.650Z,66.60
2018-07-09T14:20:56.731Z,67.70
2018-07-09T14:23:24.859Z,70.30
2018-07-09T14:28:21.004Z,75.00
2018-07-09T14:33:17.069Z,72.40
2018-07-09T14:35:44.552Z,71.40
2018-07-09T14:38:12.023Z,70.40
2018-07-09T14:40:39.525Z,68.90
2018-07-09T14:45:34.177Z,71.70
2018-07-09T14:48:01.736Z,71.20
2018-07-09T14:50:29.069Z,69.40
2018-07-09T14:52:56.563Z,67.10
2018-07-09T14:55:23.999Z,71.80
2018-07-09T15:00:24.778Z,73.70
2018-07-09T15:02:52.232Z,73.50
2018-07-09T15:05:19.567Z,74.40
2018-07-09T15:07:47.149Z,71.60
2018-07-09T15:10:14.520Z,75.90
2018-07-09T15:12:41.840Z,79.40
2018-07-09T15:15:09.218Z,77.70
2018-07-09T15:17:36.790Z,77.60
2018-07-09T15:20:04.639Z,77.60
2018-07-09T15:22:32.424Z,78.40
2018-07-09T15:24:59.753Z,80.00
2018-07-09T15:27:27.098Z,79.30
2018-07-09T15:29:54.470Z,79.70
2018-07-09T15:32:23.514Z,78.90
2018-07-09T15:34:51.345Z,79.30
2018-07-09T15:37:19.019Z,78.00
2018-07-09T15:39:46.548Z,78.10
2018-07-09T15:42:14.138Z,77.60
2018-07-09T15:44:41.799Z,79.50
2018-07-09T15:47:09.233Z,83.10
2018-07-09T15:49:36.903Z,84.40
2018-07-09T15:52:04.904Z,84.40
2018-07-09T15:54:32.234Z,85.40
2018-07-09T15:56:59.582Z,85.30
2018-07-09T15:59:26.955Z,85.30
2018-07-09T16:01:54.468Z,85.30
2018-07-09T16:04:22.074Z,86.60
2018-07-09T16:06:49.403Z,85.00
2018-07-09T16:11:45.781Z,85.90
2018-07-09T16:14:14.051Z,86.40
2018-07-09T16:16:41.324Z,87.10
2018-07-09T16:19:08.584Z,88.20
2018-07-09T16:21:35.820Z,87.10
2018-07-09T16:24:03.364Z,87.90
2018-07-09T16:26:30.739Z,88.00
2018-07-09T16:29:00.802Z,88.70
2018-07-09T16:36:23.451Z,86.20
2018-07-09T16:38:50.829Z,86.30
2018-07-09T16:41:18.136Z,85.80
2018-07-09T16:43:45.404Z,84.50
2018-07-09T16:46:12.636Z,84.20
2018-07-09T16:51:16.302Z,85.70
2018-07-09T16:53:45.252Z,83.20
2018-07-09T16:56:12.539Z,77.60
2018-07-09T16:58:39.785Z,76.80
2018-07-09T17:01:07.143Z,75.80
2018-07-09T17:03:34.462Z,77.90
2018-07-09T17:06:01.748Z,81.30
2018-07-09T17:08:29.042Z,82.00
2018-07-09T17:10:56.292Z,83.20
2018-07-09T17:13:23.535Z,79.60
2018-07-09T17:15:50.840Z,77.50
2018-07-09T17:20:52.077Z,77.00
2018-07-09T17:23:21.216Z,77.60
2018-07-09T17:25:50.877Z,81.40
2018-07-09T17:28:20.330Z,85.90
2018-07-09T17:30:50.236Z,86.00
2018-07-09T17:38:17.997Z,90.40
2018-07-09T17:40:47.361Z,90.70
2018-07-09T17:43:16.581Z,91.00
2018-07-09T17:45:50.801Z,91.10
2018-07-09T17:48:19.635Z,90.90
2018-07-09T17:50:46.954Z,91.60
2018-07-09T17:53:16.185Z,92.40
2018-07-09T17:55:45.642Z,93.20
2018-07-09T17:58:14.903Z,94.60
2018-07-09T18:00:43.357Z,95.40
2018-07-09T18:03:12.575Z,94.90
2018-07-09T18:05:40.251Z,94.00
2018-07-09T18:10:35.021Z,94.20
2018-07-09T18:13:02.363Z,94.80
2018-07-09T18:15:29.727Z,94.40
2018-07-09T18:17:57.073Z,94.90
2018-07-09T18:20:24.595Z,94.30
2018-07-09T18:27:46.613Z,95.70
2018-07-09T18:30:13.960Z,96.10
2018-07-09T18:32:41.681Z,96.10
2018-07-09T18:35:09.190Z,99.90
2018-07-09T18:37:36.402Z,99.90
2018-07-09T18:44:57.801Z,99.90
2018-07-09T18:47:25.138Z,99.90
2018-07-09T18:49:52.436Z,99.90
2018-07-09T18:52:19.741Z,99.90
2018-07-09T18:54:46.975Z,99.90
2018-07-09T18:57:14.233Z,99.90
2018-07-09T19:02:08.519Z,99.90
2018-07-09T19:04:35.759Z,99.90
2018-07-09T19:07:05.089Z,99.90
2018-07-09T19:09:33.247Z,99.90
2018-07-09T19:12:00.824Z,99.90
2018-07-09T19:19:27.767Z,99.90
2018-07-09T19:21:58.214Z,99.90
2018-07-09T19:24:24.833Z,99.90
2018-07-09T19:26:51.421Z,99.90
2018-07-09T19:29:18.037Z,99.90
2018-07-09T19:31:44.647Z,99.90
2018-07-09T19:34:11.335Z,99.90
2018-07-09T19:36:37.947Z,99.90
2018-07-09T19:39:05.211Z,99.90
2018-07-09T19:41:31.836Z,99.90
2018-07-09T19:43:58.456Z,99.90
2018-07-09T19:46:25.080Z,99.90
2018-07-09T19:48:51.679Z,99.90
2018-07-09T19:51:18.316Z,99.90
2018-07-09T19:53:44.901Z,99.90
2018-07-09T19:56:11.540Z,99.90
2018-07-09T19:58:38.170Z,99.90
2018-07-09T20:01:04.770Z,99.90
2018-07-09T20:03:31.410Z,99.90
2018-07-09T20:05:58.220Z,99.90
2018-07-09T20:08:30.432Z,99.90
2018-07-09T20:17:05.761Z,99.90
2018-07-09T20:19:32.412Z,99.90
2018-07-09T20:21:59.120Z,99.90
2018-07-09T20:24:25.723Z,99.90
2018-07-09T20:26:52.319Z,99.90
2018-07-09T20:29:19.098Z,99.90
2018-07-09T20:31:45.715Z,99.90
2018-07-09T20:37:36.360Z,99.90
2018-07-09T20:40:03.092Z,99.90
2018-07-09T20:42:29.745Z,99.90
2018-07-09T20:44:56.415Z,99.90
2018-07-09T20:47:23.444Z,99.90
2018-07-09T20:49:50.775Z,99.90
2018-07-09T20:52:17.524Z,99.90
2018-07-09T20:54:44.181Z,99.90
2018-07-09T20:57:11.136Z,99.90
2018-07-09T20:59:37.810Z,99.90
2018-07-09T21:02:04.523Z,99.90
2018-07-09T21:07:00.042Z,99.90
2018-07-09T21:09:27.415Z,99.90
2018-07-09T21:11:54.730Z,99.90
2018-07-09T21:14:21.434Z,99.90
2018-07-09T21:16:48.130Z,99.90
2018-07-09T21:19:14.873Z,99.90
2018-07-09T21:21:41.532Z,99.90
2018-07-09T21:26:35.352Z,99.90
2018-07-09T21:29:02.233Z,99.90
2018-07-09T21:31:28.964Z,99.90
2018-07-09T21:33:55.818Z,99.90
2018-07-09T21:36:22.546Z,99.90
2018-07-09T21:38:49.262Z,99.90
2018-07-09T21:41:16.021Z,99.90
2018-07-09T21:43:42.737Z,99.90
2018-07-09T21:46:09.509Z,99.90
2018-07-09T21:48:36.292Z,99.90
2018-07-09T21:51:02.990Z,99.90
2018-07-09T21:53:29.707Z,99.90
2018-07-09T21:55:56.504Z,99.90
2018-07-09T21:58:23.833Z,99.90
2018-07-09T22:00:50.797Z,99.90
2018-07-09T22:03:17.610Z,99.90
2018-07-09T22:05:44.276Z,99.90
2018-07-09T22:08:10.938Z,99.90
2018-07-09T22:10:37.640Z,99.90
2018-07-09T22:13:04.376Z,99.90
2018-07-09T22:15:31.135Z,99.90
2018-07-09T22:17:57.856Z,99.90
2018-07-09T22:20:24.556Z,99.90
2018-07-09T22:22:51.249Z,99.90
2018-07-09T22:25:17.918Z,99.90
2018-07-09T22:27:44.606Z,99.90
2018-07-09T22:30:11.348Z,99.90
2018-07-09T22:32:39.647Z,99.90
2018-07-09T22:35:07.916Z,99.90
2018-07-09T22:37:36.091Z,99.90
2018-07-09T22:40:04.198Z,99.90
2018-07-09T22:42:32.422Z,99.90
2018-07-09T22:45:00.549Z,99.90
2018-07-09T22:47:28.853Z,99.90
2018-07-09T22:49:56.935Z,99.90
2018-07-09T22:55:03.978Z,99.90
2018-07-09T22:57:32.013Z,99.90
2018-07-09T23:02:28.069Z,99.90
2018-07-09T23:04:56.262Z,99.90
2018-07-09T23:07:24.356Z,99.90
2018-07-09T23:11:08.046Z,99.90
2018-07-09T23:15:51.911Z,99.90
2018-07-09T23:23:03.908Z,99.90
2018-07-09T23:25:30.559Z,99.90
2018-07-09T23:27:57.281Z,99.90
2018-07-09T23:30:23.948Z,99.90
2018-07-09T23:32:50.613Z,99.90
2018-07-09T23:37:44.387Z,99.90
2018-07-09T23:40:11.102Z,99.90
2018-07-09T23:42:37.785Z,99.90
2018-07-09T23:47:31.558Z,99.90
2018-07-09T23:49:58.340Z,99.90
2018-07-09T23:52:25.021Z,99.90
2018-07-09T23:54:51.733Z,99.90
2018-07-09T23:59:36.778Z,99.90
